createdAt,value
2018-07-20T00:00:23.475Z,94.17
2018-07-20T00:01:23.354Z,94.65
2018-07-20T00:02:23.231Z,94.65
2018-07-20T00:03:23.114Z,94.55
2018-07-20T00:04:22.991Z,94.65
2018-07-20T00:05:22.867Z,94.26
2018-07-20T00:06:25.684Z,94.89
2018-07-20T00:07:22.626Z,94.84
2018-07-20T00:08:22.504Z,94.89
2018-07-20T00:09:22.384Z,94.55
2018-07-20T00:10:22.258Z,94.93
2018-07-20T00:11:22.135Z,94.17
2018-07-20T00:12:22.016Z,94.36
2018-07-20T00:13:23.686Z,94.89
2018-07-20T00:14:21.773Z,95.03
2018-07-20T00:15:21.651Z,95.27
2018-07-20T00:16:21.536Z,95.07
2018-07-20T00:17:21.412Z,94.98
2018-07-20T00:18:21.290Z,95.17
2018-07-20T00:19:21.168Z,94.50
2018-07-20T00:20:21.046Z,94.65
2018-07-20T00:21:20.921Z,94.45
2018-07-20T00:22:20.802Z,94.65
2018-07-20T00:23:20.679Z,95.07
2018-07-20T00:24:22.189Z,95.07
2018-07-20T00:25:20.437Z,95.27
2018-07-20T00:26:20.315Z,94.41
2018-07-20T00:27:20.418Z,95.36
2018-07-20T00:28:20.194Z,95.27
2018-07-20T00:29:19.952Z,95.94
2018-07-20T00:30:19.837Z,96.03
2018-07-20T00:31:19.707Z,95.94
2018-07-20T00:32:19.590Z,95.94
2018-07-20T00:33:19.465Z,95.75
2018-07-20T00:34:19.342Z,96.32
2018-07-20T00:35:19.221Z,96.51
2018-07-20T00:36:19.101Z,96.80
2018-07-20T00:37:18.977Z,97.08
2018-07-20T00:38:18.861Z,96.80
2018-07-20T00:39:18.735Z,96.80
2018-07-20T00:40:18.613Z,96.61
2018-07-20T00:41:18.494Z,96.99
2018-07-20T00:42:18.371Z,96.89
2018-07-20T00:43:18.248Z,96.99
2018-07-20T00:44:18.130Z,96.22
2018-07-20T00:45:18.005Z,96.32
2018-07-20T00:46:17.884Z,96.03
2018-07-20T00:47:17.763Z,95.84
2018-07-20T00:48:17.639Z,97.18
2018-07-20T00:49:17.520Z,97.08
2018-07-20T00:50:17.398Z,96.80
2018-07-20T00:51:17.273Z,96.03
2018-07-20T00:52:17.156Z,95.84
2018-07-20T00:53:17.029Z,96.18
2018-07-20T00:54:19.696Z,96.22
2018-07-20T00:55:16.791Z,96.03
2018-07-20T00:56:16.696Z,97.08
2018-07-20T00:57:16.546Z,96.89
2018-07-20T00:58:16.422Z,97.08
2018-07-20T00:59:16.302Z,96.80
2018-07-20T01:00:16.181Z,97.28
2018-07-20T01:01:17.698Z,97.37
2018-07-20T01:02:15.939Z,97.75
2018-07-20T01:03:15.816Z,97.95
2018-07-20T01:04:15.697Z,98.14
2018-07-20T01:05:15.572Z,97.85
2018-07-20T01:06:15.455Z,97.47
2018-07-20T01:07:15.331Z,97.85
2018-07-20T01:08:15.209Z,98.04
2018-07-20T01:09:15.086Z,97.85
2018-07-20T01:10:14.966Z,97.75
2018-07-20T01:11:14.850Z,98.04
2018-07-20T01:12:14.723Z,98.04
2018-07-20T01:13:14.603Z,98.04
2018-07-20T01:14:14.480Z,97.28
2018-07-20T01:15:14.359Z,96.22
2018-07-20T01:16:14.238Z,96.13
2018-07-20T01:17:15.701Z,96.61
2018-07-20T01:18:15.705Z,97.37
2018-07-20T01:19:13.870Z,97.08
2018-07-20T01:20:13.748Z,95.75
2018-07-20T01:21:13.627Z,95.94
2018-07-20T01:22:13.503Z,96.61
2018-07-20T01:23:13.856Z,96.99
2018-07-20T01:24:13.268Z,96.99
2018-07-20T01:25:13.139Z,96.89
2018-07-20T01:26:13.018Z,96.61
2018-07-20T01:27:12.896Z,96.61
2018-07-20T01:28:12.775Z,95.84
2018-07-20T01:29:12.654Z,95.31
2018-07-20T01:30:12.533Z,95.75
2018-07-20T01:31:12.409Z,95.84
2018-07-20T01:32:14.204Z,96.84
2018-07-20T01:33:12.165Z,97.37
2018-07-20T01:34:12.043Z,97.37
2018-07-20T01:35:11.922Z,96.80
2018-07-20T01:36:11.802Z,96.80
2018-07-20T01:37:11.683Z,97.37
2018-07-20T01:38:11.559Z,96.89
2018-07-20T01:39:11.443Z,96.03
2018-07-20T01:40:11.315Z,96.13
2018-07-20T01:41:11.196Z,96.18
2018-07-20T01:42:11.070Z,95.65
2018-07-20T01:43:10.952Z,95.51
2018-07-20T01:44:10.829Z,95.98
2018-07-20T01:45:10.707Z,96.18
2018-07-20T01:46:10.585Z,96.18
2018-07-20T01:47:10.467Z,96.32
2018-07-20T01:48:10.344Z,96.37
2018-07-20T01:49:10.225Z,95.98
2018-07-20T01:50:10.100Z,95.89
2018-07-20T01:51:09.975Z,95.70
2018-07-20T01:52:09.856Z,95.70
2018-07-20T01:53:11.709Z,95.79
2018-07-20T01:54:11.210Z,95.98
2018-07-20T01:55:09.493Z,95.89
2018-07-20T01:56:09.372Z,96.56
2018-07-20T01:57:09.252Z,96.47
2018-07-20T01:58:09.125Z,96.37
2018-07-20T01:59:09.003Z,95.61
2018-07-20T02:00:08.887Z,96.47
2018-07-20T02:01:08.764Z,96.66
2018-07-20T02:02:08.644Z,97.42
2018-07-20T02:03:08.522Z,97.23
2018-07-20T02:04:08.402Z,97.47
2018-07-20T02:05:08.279Z,98.04
2018-07-20T02:06:08.158Z,97.28
2018-07-20T02:07:08.036Z,97.33
2018-07-20T02:08:07.914Z,97.04
2018-07-20T02:09:07.792Z,97.13
2018-07-20T02:10:07.674Z,97.04
2018-07-20T02:11:09.215Z,96.47
2018-07-20T02:12:07.436Z,96.27
2018-07-20T02:13:07.307Z,96.37
2018-07-20T02:14:07.185Z,96.08
2018-07-20T02:15:07.064Z,96.75
2018-07-20T02:16:06.947Z,96.66
2018-07-20T02:17:06.825Z,97.04
2018-07-20T02:18:06.704Z,97.13
2018-07-20T02:19:06.579Z,97.18
2018-07-20T02:20:06.462Z,96.89
2018-07-20T02:21:06.338Z,97.28
2018-07-20T02:22:07.718Z,98.04
2018-07-20T02:23:06.099Z,98.90
2018-07-20T02:24:05.975Z,98.90
2018-07-20T02:25:05.854Z,99.48
2018-07-20T02:26:05.730Z,98.81
2018-07-20T02:27:05.615Z,99.10
2018-07-20T02:28:05.490Z,99.10
2018-07-20T02:29:05.369Z,99.19
2018-07-20T02:30:05.251Z,98.85
2018-07-20T02:31:05.127Z,99.14
2018-07-20T02:32:05.004Z,99.04
2018-07-20T02:33:06.721Z,99.43
2018-07-20T02:34:04.762Z,99.52
2018-07-20T02:35:04.641Z,99.52
2018-07-20T02:36:06.229Z,99.52
2018-07-20T02:37:04.394Z,99.43
2018-07-20T02:38:04.278Z,99.90
2018-07-20T02:39:04.151Z,99.43
2018-07-20T02:40:04.031Z,99.90
2018-07-20T02:41:03.910Z,99.99
2018-07-20T02:42:03.789Z,99.71
2018-07-20T02:43:03.668Z,99.99
2018-07-20T02:44:03.546Z,99.99
2018-07-20T02:45:03.427Z,99.99
2018-07-20T02:46:03.303Z,99.99
2018-07-20T02:47:03.186Z,99.99
2018-07-20T02:48:03.057Z,99.99
2018-07-20T02:49:02.937Z,99.99
2018-07-20T02:50:02.817Z,99.99
2018-07-20T02:51:02.693Z,99.99
2018-07-20T02:52:02.579Z,99.99
2018-07-20T02:53:02.450Z,99.90
2018-07-20T02:54:02.328Z,99.71
2018-07-20T02:55:02.206Z,99.90
2018-07-20T02:56:02.083Z,99.99
2018-07-20T02:57:01.965Z,99.99
2018-07-20T02:58:01.842Z,99.99
2018-07-20T02:59:01.717Z,99.99
2018-07-20T03:00:01.599Z,99.99
2018-07-20T03:01:01.473Z,99.99
2018-07-20T03:02:01.354Z,99.99
2018-07-20T03:03:01.233Z,99.99
2018-07-20T03:04:01.106Z,99.99
2018-07-20T03:05:00.985Z,99.99
2018-07-20T03:06:00.861Z,99.99
2018-07-20T03:07:00.739Z,99.99
2018-07-20T03:08:00.616Z,99.99
2018-07-20T03:09:00.552Z,99.99
2018-07-20T03:10:00.381Z,99.99
2018-07-20T03:11:00.251Z,99.99
2018-07-20T03:12:00.136Z,99.99
2018-07-20T03:13:00.009Z,99.99
2018-07-20T03:13:59.886Z,99.99
2018-07-20T03:14:59.763Z,99.99
2018-07-20T03:16:01.232Z,99.99
2018-07-20T03:16:59.523Z,99.99
2018-07-20T03:17:59.399Z,99.99
2018-07-20T03:18:59.277Z,99.99
2018-07-20T03:19:59.864Z,99.99
2018-07-20T03:20:59.041Z,99.99
2018-07-20T03:21:58.909Z,99.99
2018-07-20T03:22:58.786Z,99.99
2018-07-20T03:23:58.664Z,99.99
2018-07-20T03:24:58.545Z,99.99
2018-07-20T03:26:00.234Z,99.99
2018-07-20T03:26:58.299Z,99.99
2018-07-20T03:27:58.176Z,99.99
2018-07-20T03:28:58.052Z,99.99
2018-07-20T03:29:57.929Z,99.99
2018-07-20T03:30:57.808Z,99.99
2018-07-20T03:31:57.688Z,99.99
2018-07-20T03:32:57.586Z,99.99
2018-07-20T03:33:57.442Z,99.99
2018-07-20T03:34:59.235Z,99.99
2018-07-20T03:35:58.737Z,99.99
2018-07-20T03:36:57.079Z,99.99
2018-07-20T03:37:56.954Z,99.99
2018-07-20T03:38:56.833Z,99.99
2018-07-20T03:39:56.706Z,99.99
2018-07-20T03:40:56.585Z,99.99
2018-07-20T03:41:56.462Z,99.99
2018-07-20T03:42:56.343Z,99.99
2018-07-20T03:43:56.220Z,99.99
2018-07-20T03:44:56.099Z,99.99
2018-07-20T03:45:55.974Z,99.99
2018-07-20T03:46:57.740Z,99.99
2018-07-20T03:47:55.730Z,99.99
2018-07-20T03:48:57.246Z,99.99
2018-07-20T03:49:55.485Z,99.99
2018-07-20T03:50:55.363Z,99.99
2018-07-20T03:51:55.239Z,99.99
2018-07-20T03:52:56.741Z,99.99
2018-07-20T03:53:54.999Z,99.99
2018-07-20T03:54:54.875Z,99.99
2018-07-20T03:55:54.749Z,99.99
2018-07-20T03:56:54.631Z,99.99
2018-07-20T03:57:54.507Z,99.99
2018-07-20T03:58:56.242Z,99.99
2018-07-20T03:59:54.260Z,99.99
2018-07-20T04:00:54.144Z,99.99
2018-07-20T04:01:54.021Z,99.99
2018-07-20T04:02:53.899Z,99.99
2018-07-20T04:03:53.773Z,99.99
2018-07-20T04:04:53.653Z,99.99
2018-07-20T04:05:53.534Z,99.99
2018-07-20T04:06:53.408Z,99.99
2018-07-20T04:07:53.288Z,99.99
2018-07-20T04:08:53.167Z,99.99
2018-07-20T04:09:54.745Z,99.99
2018-07-20T04:10:52.921Z,99.99
2018-07-20T04:11:52.799Z,99.99
2018-07-20T04:12:52.677Z,99.99
2018-07-20T04:13:52.552Z,99.99
2018-07-20T04:14:52.432Z,99.99
2018-07-20T04:15:52.310Z,99.99
2018-07-20T04:16:52.189Z,99.99
2018-07-20T04:17:52.066Z,99.99
2018-07-20T04:18:51.945Z,99.99
2018-07-20T04:19:51.824Z,99.99
2018-07-20T04:20:51.705Z,99.99
2018-07-20T04:21:51.575Z,99.99
2018-07-20T04:22:54.248Z,99.99
2018-07-20T04:23:51.334Z,99.99
2018-07-20T04:24:51.223Z,99.99
2018-07-20T04:25:52.750Z,99.33
2018-07-20T04:26:52.748Z,99.99
2018-07-20T04:27:50.849Z,99.99
2018-07-20T04:28:50.725Z,99.99
2018-07-20T04:29:50.603Z,99.99
2018-07-20T04:30:50.481Z,99.99
2018-07-20T04:31:50.364Z,99.99
2018-07-20T04:32:50.237Z,99.99
2018-07-20T04:33:50.116Z,99.99
2018-07-20T04:34:51.750Z,99.99
2018-07-20T04:35:49.882Z,99.99
2018-07-20T04:36:49.752Z,99.99
2018-07-20T04:37:51.252Z,99.99
2018-07-20T04:38:49.507Z,99.99
2018-07-20T04:39:49.386Z,99.99
2018-07-20T04:40:49.265Z,99.99
2018-07-20T04:41:49.144Z,99.99
2018-07-20T04:42:49.020Z,99.99
2018-07-20T04:43:48.935Z,99.99
2018-07-20T04:44:48.778Z,99.99
2018-07-20T04:45:48.657Z,99.99
2018-07-20T04:46:48.534Z,99.99
2018-07-20T04:47:48.417Z,99.43
2018-07-20T04:48:48.293Z,99.52
2018-07-20T04:49:48.173Z,97.80
2018-07-20T04:50:48.051Z,99.91
2018-07-20T04:51:47.935Z,99.99
2018-07-20T04:52:49.754Z,99.99
2018-07-20T04:53:47.687Z,99.99
2018-07-20T04:54:47.565Z,99.99
2018-07-20T04:55:47.448Z,98.28
2018-07-20T04:56:49.257Z,99.15
2018-07-20T04:57:47.199Z,99.91
2018-07-20T04:58:47.098Z,98.66
2018-07-20T04:59:46.965Z,97.90
2018-07-20T05:00:46.839Z,94.65
2018-07-20T05:01:48.257Z,93.21
2018-07-20T05:02:46.599Z,93.21
2018-07-20T05:03:46.674Z,94.36
2018-07-20T05:04:46.356Z,95.65
2018-07-20T05:05:46.255Z,95.56
2018-07-20T05:06:46.113Z,94.79
2018-07-20T05:07:45.993Z,92.97
2018-07-20T05:08:45.880Z,93.83
2018-07-20T05:09:47.258Z,95.12
2018-07-20T05:10:45.628Z,93.12
2018-07-20T05:11:45.508Z,91.53
2018-07-20T05:12:45.389Z,90.86
2018-07-20T05:13:46.760Z,92.40
2018-07-20T05:14:45.146Z,93.16
2018-07-20T05:15:45.027Z,92.78
2018-07-20T05:16:45.885Z,90.67
2018-07-20T05:17:44.784Z,89.52
2018-07-20T05:18:44.662Z,90.29
2018-07-20T05:19:44.543Z,90.67
2018-07-20T05:20:46.273Z,90.39
2018-07-20T05:21:44.302Z,91.05
2018-07-20T05:22:44.179Z,92.58
2018-07-20T05:23:44.062Z,93.26
2018-07-20T05:24:43.937Z,93.07
2018-07-20T05:25:43.816Z,91.97
2018-07-20T05:26:43.696Z,93.16
2018-07-20T05:27:43.579Z,94.98
2018-07-20T05:28:43.457Z,92.21
2018-07-20T05:29:43.332Z,93.83
2018-07-20T05:30:43.213Z,93.64
2018-07-20T05:31:43.091Z,94.31
2018-07-20T05:32:43.062Z,95.94
2018-07-20T05:33:42.850Z,96.08
2018-07-20T05:34:42.729Z,97.42
2018-07-20T05:35:42.612Z,96.27
2018-07-20T05:36:42.495Z,94.93
2018-07-20T05:37:42.367Z,91.96
2018-07-20T05:38:42.247Z,91.10
2018-07-20T05:39:42.129Z,91.19
2018-07-20T05:40:42.008Z,91.19
2018-07-20T05:41:41.889Z,91.00
2018-07-20T05:42:41.766Z,92.15
2018-07-20T05:43:41.644Z,91.29
2018-07-20T05:44:41.523Z,92.44
2018-07-20T05:45:41.887Z,90.81
2018-07-20T05:46:41.282Z,90.14
2018-07-20T05:47:41.183Z,90.72
2018-07-20T05:48:41.045Z,90.53
2018-07-20T05:49:40.925Z,90.81
2018-07-20T05:50:40.799Z,92.35
2018-07-20T05:51:40.680Z,91.39
2018-07-20T05:52:40.560Z,92.35
2018-07-20T05:53:40.441Z,91.86
2018-07-20T05:54:40.321Z,87.94
2018-07-20T05:55:40.198Z,87.79
2018-07-20T05:56:40.077Z,85.78
2018-07-20T05:57:39.958Z,85.78
2018-07-20T05:58:39.836Z,85.58
2018-07-20T05:59:39.716Z,85.30
2018-07-20T06:00:39.600Z,84.34
2018-07-20T06:01:39.471Z,83.86
2018-07-20T06:02:39.354Z,84.63
2018-07-20T06:03:39.234Z,85.01
2018-07-20T06:04:39.118Z,85.21
2018-07-20T06:05:39.063Z,85.88
2018-07-20T06:06:38.875Z,85.58
2018-07-20T06:07:38.753Z,85.39
2018-07-20T06:08:38.658Z,84.82
2018-07-20T06:09:40.276Z,86.64
2018-07-20T06:10:38.392Z,87.60
2018-07-20T06:11:38.272Z,86.49
2018-07-20T06:12:38.154Z,86.88
2018-07-20T06:13:38.034Z,85.28
2018-07-20T06:14:37.914Z,86.15
2018-07-20T06:15:37.793Z,82.03
2018-07-20T06:16:37.673Z,82.45
2018-07-20T06:17:37.552Z,83.22
2018-07-20T06:18:37.431Z,81.49
2018-07-20T06:19:37.313Z,80.91
2018-07-20T06:20:37.199Z,81.10
2018-07-20T06:21:38.778Z,80.15
2018-07-20T06:22:36.956Z,81.01
2018-07-20T06:23:36.958Z,81.87
2018-07-20T06:24:36.716Z,81.01
2018-07-20T06:25:36.591Z,80.91
2018-07-20T06:26:36.842Z,80.15
2018-07-20T06:27:36.351Z,80.15
2018-07-20T06:28:36.233Z,80.05
2018-07-20T06:29:36.130Z,78.80
2018-07-20T06:30:37.780Z,79.42
2018-07-20T06:31:35.872Z,78.27
2018-07-20T06:32:35.757Z,80.57
2018-07-20T06:33:35.632Z,75.38
2018-07-20T06:34:35.516Z,74.04
2018-07-20T06:35:35.391Z,74.04
2018-07-20T06:36:35.272Z,75.00
2018-07-20T06:37:35.154Z,74.04
2018-07-20T06:38:35.036Z,76.06
2018-07-20T06:39:34.916Z,78.94
2018-07-20T06:40:34.826Z,77.59
2018-07-20T06:41:35.747Z,76.57
2018-07-20T06:42:34.556Z,74.75
2018-07-20T06:43:34.447Z,76.32
2018-07-20T06:44:34.321Z,77.86
2018-07-20T06:45:34.198Z,74.69
2018-07-20T06:46:34.080Z,74.30
2018-07-20T06:47:35.785Z,74.98
2018-07-20T06:48:33.839Z,74.02
2018-07-20T06:49:35.287Z,73.25
2018-07-20T06:50:33.637Z,72.32
2018-07-20T06:51:33.482Z,70.78
2018-07-20T06:52:35.287Z,72.90
2018-07-20T06:53:33.347Z,73.19
2018-07-20T06:54:33.123Z,71.40
2018-07-20T06:55:33.009Z,69.95
2018-07-20T06:56:32.890Z,68.67
2018-07-20T06:57:32.770Z,69.24
2018-07-20T06:58:32.650Z,71.26
2018-07-20T06:59:32.530Z,69.69
2018-07-20T07:00:32.411Z,71.23
2018-07-20T07:01:33.792Z,72.48
2018-07-20T07:02:33.790Z,71.71
2018-07-20T07:03:32.056Z,72.38
2018-07-20T07:04:31.938Z,73.06
2018-07-20T07:05:31.818Z,72.58
2018-07-20T07:06:31.700Z,71.65
2018-07-20T07:07:31.583Z,70.88
2018-07-20T07:08:33.292Z,71.49
2018-07-20T07:09:31.370Z,71.69
2018-07-20T07:10:31.224Z,69.95
2018-07-20T07:11:31.106Z,70.15
2018-07-20T07:12:30.986Z,68.99
2018-07-20T07:13:30.868Z,68.70
2018-07-20T07:14:30.783Z,69.57
2018-07-20T07:15:31.762Z,69.76
2018-07-20T07:16:30.518Z,68.41
2018-07-20T07:17:30.396Z,67.26
2018-07-20T07:18:30.281Z,68.06
2018-07-20T07:19:30.156Z,68.54
2018-07-20T07:20:30.040Z,68.93
2018-07-20T07:21:30.020Z,66.94
2018-07-20T07:22:29.807Z,67.33
2018-07-20T07:23:29.683Z,67.33
2018-07-20T07:24:29.570Z,65.37
2018-07-20T07:25:29.445Z,65.46
2018-07-20T07:26:29.332Z,66.04
2018-07-20T07:27:29.210Z,66.14
2018-07-20T07:28:29.091Z,66.65
2018-07-20T07:29:28.972Z,67.33
2018-07-20T07:30:28.857Z,66.36
2018-07-20T07:31:28.736Z,66.59
2018-07-20T07:32:28.621Z,66.01
2018-07-20T07:33:30.299Z,66.11
2018-07-20T07:34:28.383Z,65.24
2018-07-20T07:35:28.264Z,66.20
2018-07-20T07:36:28.145Z,65.33
2018-07-20T07:37:28.034Z,66.24
2018-07-20T07:38:27.909Z,65.47
2018-07-20T07:39:27.853Z,65.01
2018-07-20T07:40:27.679Z,63.73
2018-07-20T07:41:27.590Z,63.54
2018-07-20T07:42:29.302Z,63.82
2018-07-20T07:43:27.324Z,64.11
2018-07-20T07:44:27.244Z,63.73
2018-07-20T07:45:27.088Z,63.60
2018-07-20T07:46:26.980Z,64.59
2018-07-20T07:47:26.858Z,63.82
2018-07-20T07:48:26.737Z,64.59
2018-07-20T07:49:26.684Z,63.92
2018-07-20T07:50:29.312Z,64.89
2018-07-20T07:51:26.387Z,63.24
2018-07-20T07:52:26.267Z,63.98
2018-07-20T07:53:26.148Z,62.86
2018-07-20T07:54:26.133Z,62.96
2018-07-20T07:55:25.916Z,62.76
2018-07-20T07:56:25.804Z,62.73
2018-07-20T07:57:25.680Z,63.31
2018-07-20T07:58:25.565Z,63.70
2018-07-20T07:59:25.453Z,63.41
2018-07-20T08:00:25.329Z,63.60
2018-07-20T08:01:25.210Z,64.28
2018-07-20T08:02:25.091Z,62.73
2018-07-20T08:03:25.014Z,62.93
2018-07-20T08:04:24.859Z,64.28
2018-07-20T08:05:24.741Z,65.24
2018-07-20T08:06:24.622Z,64.59
2018-07-20T08:07:24.508Z,62.96
2018-07-20T08:08:24.395Z,63.06
2018-07-20T08:09:24.271Z,63.37
2018-07-20T08:10:24.268Z,64.63
2018-07-20T08:11:24.036Z,61.29
2018-07-20T08:12:23.919Z,61.90
2018-07-20T08:13:23.802Z,64.15
2018-07-20T08:14:25.402Z,66.75
2018-07-20T08:15:23.568Z,63.89
2018-07-20T08:16:23.451Z,63.54
2018-07-20T08:17:23.340Z,63.18
2018-07-20T08:18:23.219Z,61.41
2018-07-20T08:19:23.103Z,61.83
2018-07-20T08:20:22.985Z,60.28
2018-07-20T08:21:22.866Z,61.57
2018-07-20T08:22:22.751Z,60.51
2018-07-20T08:23:24.315Z,59.64
2018-07-20T08:24:22.516Z,61.47
2018-07-20T08:25:22.399Z,59.96
2018-07-20T08:26:22.410Z,59.28
2018-07-20T08:27:22.165Z,59.28
2018-07-20T08:28:22.050Z,58.90
2018-07-20T08:29:21.982Z,58.51
2018-07-20T08:30:21.833Z,58.06
2018-07-20T08:31:23.319Z,57.06
2018-07-20T08:32:21.587Z,58.64
2018-07-20T08:33:21.468Z,57.77
2018-07-20T08:34:21.348Z,57.67
2018-07-20T08:35:21.233Z,57.38
2018-07-20T08:36:21.119Z,57.29
2018-07-20T08:37:21.005Z,56.99
2018-07-20T08:38:20.884Z,56.32
2018-07-20T08:39:23.183Z,56.90
2018-07-20T08:40:20.656Z,57.48
2018-07-20T08:41:20.997Z,57.67
2018-07-20T08:42:20.420Z,58.28
2018-07-20T08:43:20.309Z,56.63
2018-07-20T08:44:20.186Z,55.87
2018-07-20T08:45:20.070Z,56.15
2018-07-20T08:46:19.956Z,55.38
2018-07-20T08:47:19.839Z,56.73
2018-07-20T08:48:19.722Z,56.47
2018-07-20T08:49:19.609Z,56.57
2018-07-20T08:50:19.490Z,55.21
2018-07-20T08:51:19.377Z,56.28
2018-07-20T08:52:19.264Z,55.11
2018-07-20T08:53:19.144Z,55.79
2018-07-20T08:54:19.029Z,55.41
2018-07-20T08:55:18.913Z,56.57
2018-07-20T08:56:18.800Z,55.60
2018-07-20T08:57:18.687Z,55.60
2018-07-20T08:58:18.571Z,56.40
2018-07-20T08:59:18.449Z,54.37
2018-07-20T09:00:18.337Z,53.59
2018-07-20T09:01:18.222Z,54.30
2018-07-20T09:02:18.107Z,53.69
2018-07-20T09:03:17.991Z,53.99
2018-07-20T09:04:17.876Z,54.25
2018-07-20T09:05:17.757Z,54.32
2018-07-20T09:06:17.643Z,55.09
2018-07-20T09:07:17.530Z,55.09
2018-07-20T09:08:17.415Z,55.11
2018-07-20T09:09:17.296Z,54.25
2018-07-20T09:10:17.935Z,54.22
2018-07-20T09:11:17.068Z,52.48
2018-07-20T09:12:16.957Z,53.55
2018-07-20T09:13:16.838Z,55.02
2018-07-20T09:14:18.334Z,54.27
2018-07-20T09:15:16.603Z,53.21
2018-07-20T09:16:16.492Z,53.53
2018-07-20T09:17:16.375Z,52.56
2018-07-20T09:18:16.259Z,53.33
2018-07-20T09:19:16.155Z,53.07
2018-07-20T09:20:16.033Z,51.23
2018-07-20T09:21:15.912Z,49.39
2018-07-20T09:22:15.800Z,50.55
2018-07-20T09:23:15.683Z,51.04
2018-07-20T09:24:15.568Z,51.23
2018-07-20T09:25:15.458Z,49.87
2018-07-20T09:26:15.337Z,48.42
2018-07-20T09:27:15.224Z,49.29
2018-07-20T09:28:15.117Z,50.55
2018-07-20T09:29:14.995Z,49.77
2018-07-20T09:30:14.881Z,49.70
2018-07-20T09:31:14.766Z,49.22
2018-07-20T09:32:14.649Z,49.02
2018-07-20T09:33:14.536Z,45.03
2018-07-20T09:34:14.500Z,47.24
2018-07-20T09:35:14.311Z,49.75
2018-07-20T09:36:14.191Z,49.34
2018-07-20T09:37:14.075Z,49.34
2018-07-20T09:38:17.765Z,50.40
2018-07-20T09:39:20.347Z,47.99
2018-07-20T09:40:13.731Z,50.62
2018-07-20T09:41:13.621Z,51.30
2018-07-20T09:42:13.505Z,48.52
2018-07-20T09:43:13.487Z,48.03
2018-07-20T09:44:13.320Z,47.84
2018-07-20T09:45:13.159Z,49.41
2018-07-20T09:46:13.044Z,47.19
2018-07-20T09:47:12.930Z,46.12
2018-07-20T09:48:12.814Z,46.12
2018-07-20T09:49:12.702Z,45.34
2018-07-20T09:50:12.585Z,45.05
2018-07-20T09:51:13.350Z,46.80
2018-07-20T09:52:12.355Z,47.77
2018-07-20T09:53:12.241Z,49.32
2018-07-20T09:54:12.129Z,47.77
2018-07-20T09:55:12.014Z,47.28
2018-07-20T09:56:11.898Z,46.58
2018-07-20T09:57:11.785Z,46.87
2018-07-20T09:58:11.671Z,46.97
2018-07-20T09:59:11.556Z,47.52
2018-07-20T10:00:11.448Z,48.49
2018-07-20T10:01:11.323Z,47.04
2018-07-20T10:02:11.218Z,46.46
2018-07-20T10:03:11.859Z,47.72
2018-07-20T10:04:11.858Z,48.79
2018-07-20T10:05:10.868Z,49.75
2018-07-20T10:06:10.752Z,47.94
2018-07-20T10:07:10.637Z,47.91
2018-07-20T10:08:10.521Z,48.30
2018-07-20T10:09:10.407Z,48.01
2018-07-20T10:10:10.292Z,50.35
2018-07-20T10:11:10.291Z,48.81
2018-07-20T10:12:10.061Z,49.51
2018-07-20T10:13:09.947Z,48.76
2018-07-20T10:14:09.842Z,49.44
2018-07-20T10:15:09.722Z,49.15
2018-07-20T10:16:09.606Z,47.91
2018-07-20T10:17:09.489Z,47.20
2018-07-20T10:18:09.379Z,48.39
2018-07-20T10:19:09.280Z,47.13
2018-07-20T10:20:09.150Z,46.94
2018-07-20T10:21:09.033Z,46.45
2018-07-20T10:22:08.926Z,45.58
2018-07-20T10:23:08.804Z,46.75
2018-07-20T10:24:08.691Z,44.78
2018-07-20T10:25:08.575Z,45.37
2018-07-20T10:26:08.462Z,45.68
2018-07-20T10:27:10.862Z,45.68
2018-07-20T10:28:10.858Z,45.31
2018-07-20T10:29:08.122Z,44.61
2018-07-20T10:30:08.007Z,43.84
2018-07-20T10:31:07.893Z,43.47
2018-07-20T10:32:07.778Z,41.88
2018-07-20T10:33:07.673Z,42.36
2018-07-20T10:34:07.553Z,43.41
2018-07-20T10:35:08.369Z,43.72
2018-07-20T10:36:07.331Z,44.68
2018-07-20T10:37:07.209Z,43.13
2018-07-20T10:38:07.946Z,42.65
2018-07-20T10:39:06.985Z,43.04
2018-07-20T10:40:06.871Z,44.59
2018-07-20T10:41:09.368Z,43.47
2018-07-20T10:42:06.640Z,44.15
2018-07-20T10:43:06.539Z,43.30
2018-07-20T10:44:06.414Z,44.29
2018-07-20T10:45:06.300Z,42.64
2018-07-20T10:46:06.187Z,41.96
2018-07-20T10:47:06.076Z,40.48
2018-07-20T10:48:05.957Z,41.84
2018-07-20T10:49:05.848Z,41.51
2018-07-20T10:50:05.735Z,41.68
2018-07-20T10:51:05.625Z,41.97
2018-07-20T10:52:05.560Z,42.65
2018-07-20T10:53:05.395Z,43.50
2018-07-20T10:54:05.281Z,43.02
2018-07-20T10:55:05.169Z,44.18
2018-07-20T10:56:05.056Z,43.41
2018-07-20T10:57:04.943Z,43.70
2018-07-20T10:58:04.828Z,42.61
2018-07-20T10:59:04.713Z,42.92
2018-07-20T11:00:04.599Z,42.92
2018-07-20T11:01:04.485Z,42.44
2018-07-20T11:02:04.375Z,44.57
2018-07-20T11:03:04.526Z,44.49
2018-07-20T11:04:04.149Z,44.30
2018-07-20T11:05:04.032Z,43.13
2018-07-20T11:06:03.917Z,44.61
2018-07-20T11:07:03.948Z,42.79
2018-07-20T11:08:03.748Z,42.99
2018-07-20T11:09:03.591Z,42.11
2018-07-20T11:10:03.460Z,42.19
2018-07-20T11:11:03.348Z,42.57
2018-07-20T11:12:03.240Z,43.33
2018-07-20T11:13:03.122Z,42.67
2018-07-20T11:14:03.012Z,44.32
2018-07-20T11:15:02.902Z,45.27
2018-07-20T11:16:02.783Z,44.23
2018-07-20T11:17:02.671Z,44.03
2018-07-20T11:18:02.553Z,45.10
2018-07-20T11:19:02.445Z,45.20
2018-07-20T11:20:02.334Z,45.39
2018-07-20T11:21:02.213Z,45.07
2018-07-20T11:22:02.102Z,46.24
2018-07-20T11:23:01.987Z,46.51
2018-07-20T11:24:01.871Z,46.22
2018-07-20T11:25:01.761Z,47.26
2018-07-20T11:26:01.644Z,49.10
2018-07-20T11:27:01.532Z,49.39
2018-07-20T11:28:01.455Z,50.55
2018-07-20T11:29:01.307Z,49.77
2018-07-20T11:30:02.884Z,50.74
2018-07-20T11:31:01.076Z,49.10
2018-07-20T11:32:00.962Z,49.41
2018-07-20T11:33:00.847Z,47.83
2018-07-20T11:34:00.739Z,47.18
2018-07-20T11:35:00.620Z,46.33
2018-07-20T11:36:00.507Z,46.74
2018-07-20T11:37:00.394Z,46.96
2018-07-20T11:38:00.280Z,45.98
2018-07-20T11:39:00.165Z,44.06
2018-07-20T11:40:00.055Z,44.16
2018-07-20T11:40:59.940Z,42.72
2018-07-20T11:41:59.866Z,43.01
2018-07-20T11:42:59.714Z,43.48
2018-07-20T11:43:59.606Z,42.76
2018-07-20T11:44:59.532Z,42.97
2018-07-20T11:45:59.376Z,43.19
2018-07-20T11:46:59.264Z,43.29
2018-07-20T11:47:59.150Z,42.80
2018-07-20T11:48:59.039Z,42.00
2018-07-20T11:49:58.926Z,41.61
2018-07-20T11:50:58.815Z,41.39
2018-07-20T11:51:58.701Z,41.13
2018-07-20T11:52:58.587Z,39.98
2018-07-20T11:53:58.478Z,39.78
2018-07-20T11:54:58.367Z,39.69
2018-07-20T11:55:58.273Z,39.28
2018-07-20T11:56:58.140Z,40.62
2018-07-20T11:57:58.028Z,41.67
2018-07-20T11:58:57.915Z,41.84
2018-07-20T11:59:58.404Z,42.79
2018-07-20T12:00:57.702Z,42.86
2018-07-20T12:01:57.661Z,43.99
2018-07-20T12:02:57.466Z,44.64
2018-07-20T12:03:57.355Z,45.78
2018-07-20T12:04:57.252Z,46.34
2018-07-20T12:05:57.978Z,47.19
2018-07-20T12:06:57.104Z,47.86
2018-07-20T12:07:56.902Z,47.00
2018-07-20T12:08:56.788Z,46.70
2018-07-20T12:09:56.676Z,48.16
2018-07-20T12:10:56.566Z,49.29
2018-07-20T12:11:56.455Z,50.65
2018-07-20T12:12:56.335Z,50.81
2018-07-20T12:13:57.903Z,51.59
2018-07-20T12:14:56.106Z,52.23
2018-07-20T12:15:55.993Z,52.81
2018-07-20T12:16:55.878Z,51.95
2018-07-20T12:17:57.397Z,51.75
2018-07-20T12:18:55.654Z,52.33
2018-07-20T12:19:57.397Z,52.23
2018-07-20T12:20:55.423Z,52.04
2018-07-20T12:21:55.304Z,51.46
2018-07-20T12:22:55.189Z,53.01
2018-07-20T12:23:55.071Z,52.89
2018-07-20T12:24:54.955Z,52.50
2018-07-20T12:25:54.839Z,53.53
2018-07-20T12:26:54.725Z,55.46
2018-07-20T12:27:54.607Z,55.56
2018-07-20T12:28:54.499Z,56.59
2018-07-20T12:29:54.374Z,58.33
2018-07-20T12:30:54.260Z,57.07
2018-07-20T12:31:54.146Z,55.44
2018-07-20T12:32:54.034Z,57.24
2018-07-20T12:33:53.953Z,57.24
2018-07-20T12:34:53.982Z,55.31
2018-07-20T12:35:53.682Z,55.31
2018-07-20T12:36:53.569Z,55.41
2018-07-20T12:37:53.447Z,61.16
2018-07-20T12:38:53.331Z,64.50
2018-07-20T12:39:53.215Z,67.68
2018-07-20T12:40:53.095Z,73.42
2018-07-20T12:41:52.983Z,77.76
2018-07-20T12:42:52.867Z,81.43
2018-07-20T12:43:52.748Z,86.33
2018-07-20T12:44:52.634Z,89.75
2018-07-20T12:45:52.512Z,93.30
2018-07-20T12:46:52.397Z,96.27
2018-07-20T12:47:52.278Z,89.40
2018-07-20T12:48:52.162Z,83.78
2018-07-20T12:49:52.047Z,84.64
2018-07-20T12:50:51.932Z,82.43